sensor_id;sensor_type;location;lat;lon;timestamp;pressure;altitude;pressure_sealevel;temperature;humidity
68199;BME280;55021;51.554;17.044;2023-03-12T00:12:35;99985.97;;;0.00;75.86
68199;BME280;55021;51.554;17.044;2023-03-12T00:27:38;99897.78;;;-0.33;74.99
68199;BME280;55021;51.554;17.044;2023-03-12T00:42:41;99885.13;;;-0.56;75.20
68199;BME280;55021;51.554;17.044;2023-03-12T00:57:44;100006.41;;;0.26;75.03
68199;BME280;55021;51.554;17.044;2023-03-12T01:12:46;99929.97;;;-0.52;75.76
68199;BME280;55021;51.554;17.044;2023-03-12T01:27:49;100001.84;;;-0.12;75.95
68199;BME280;55021;51.554;17.044;2023-03-12T01:42:55;100003.47;;;0.17;74.76
68199;BME280;55021;51.554;17.044;2023-03-12T01:58:00;100006.63;;;0.36;73.54
68199;BME280;55021;51.554;17.044;2023-03-12T02:13:03;100004.19;;;0.06;74.24
68199;BME280;55021;51.554;17.044;2023-03-12T02:43:33;99947.56;;;0.31;70.45
68199;BME280;55021;51.554;17.044;2023-03-12T02:58:36;99908.06;;;-0.41;71.80
68199;BME280;55021;51.554;17.044;2023-03-12T03:13:42;99995.25;;;0.07;71.28
68199;BME280;55021;51.554;17.044;2023-03-12T03:28:47;100066.78;;;0.39;71.97
68199;BME280;55021;51.554;17.044;2023-03-12T03:43:55;99946.41;;;-0.73;72.52
68199;BME280;55021;51.554;17.044;2023-03-12T03:58:59;100046.16;;;0.15;71.38
68199;BME280;55021;51.554;17.044;2023-03-12T04:14:02;100082.09;;;0.35;71.46
68199;BME280;55021;51.554;17.044;2023-03-12T04:29:07;100048.63;;;0.04;70.90
68199;BME280;55021;51.554;17.044;2023-03-12T04:44:10;100123.19;;;0.84;70.27
68199;BME280;55021;51.554;17.044;2023-03-12T04:59:15;100025.84;;;0.00;71.37
68199;BME280;55021;51.554;17.044;2023-03-12T05:14:18;100091.94;;;0.06;71.43
68199;BME280;55021;51.554;17.044;2023-03-12T05:29:21;100087.97;;;-0.01;71.96
68199;BME280;55021;51.554;17.044;2023-03-12T05:44:24;100120.91;;;0.11;71.69
68199;BME280;55021;51.554;17.044;2023-03-12T05:59:27;100085.63;;;-0.19;71.66
68199;BME280;55021;51.554;17.044;2023-03-12T06:14:30;100102.59;;;-0.22;72.09
68199;BME280;55021;51.554;17.044;2023-03-12T06:29:33;100174.63;;;0.44;71.32
68199;BME280;55021;51.554;17.044;2023-03-12T06:44:37;100205.09;;;0.67;70.92
68199;BME280;55021;51.554;17.044;2023-03-12T06:59:39;100239.00;;;0.92;71.46
68199;BME280;55021;51.554;17.044;2023-03-12T07:14:42;100286.16;;;1.57;70.35
68199;BME280;55021;51.554;17.044;2023-03-12T07:29:44;100304.47;;;1.76;69.18
68199;BME280;55021;51.554;17.044;2023-03-12T07:44:47;100266.19;;;1.89;68.46
68199;BME280;55021;51.554;17.044;2023-03-12T07:59:49;100311.06;;;2.22;68.14
68199;BME280;55021;51.554;17.044;2023-03-12T08:14:52;100248.25;;;1.91;67.51
68199;BME280;55021;51.554;17.044;2023-03-12T08:29:54;100311.22;;;2.46;66.67
68199;BME280;55021;51.554;17.044;2023-03-12T08:44:57;100331.09;;;3.03;65.51
68199;BME280;55021;51.554;17.044;2023-03-12T08:59:59;100240.56;;;2.62;64.36
68199;BME280;55021;51.554;17.044;2023-03-12T09:15:03;100340.31;;;3.48;63.97
68199;BME280;55021;51.554;17.044;2023-03-12T09:30:08;100319.19;;;3.80;61.70
68199;BME280;55021;51.554;17.044;2023-03-12T09:45:15;100327.69;;;3.74;59.29
68199;BME280;55021;51.554;17.044;2023-03-12T10:00:22;100335.47;;;4.35;59.35
68199;BME280;55021;51.554;17.044;2023-03-12T10:15:33;100332.13;;;4.67;60.49
68199;BME280;55021;51.554;17.044;2023-03-12T10:30:40;100296.78;;;4.51;60.49
68199;BME280;55021;51.554;17.044;2023-03-12T10:45:49;100264.97;;;5.13;57.36
68199;BME280;55021;51.554;17.044;2023-03-12T11:00:59;100313.72;;;5.29;56.43
68199;BME280;55021;51.554;17.044;2023-03-12T11:16:24;100256.59;;;5.81;53.88
68199;BME280;55021;51.554;17.044;2023-03-12T11:31:29;100277.44;;;5.88;53.96
68199;BME280;55021;51.554;17.044;2023-03-12T11:46:43;100272.94;;;6.09;53.29
68199;BME280;55021;51.554;17.044;2023-03-12T12:01:57;100281.97;;;6.19;54.03
68199;BME280;55021;51.554;17.044;2023-03-12T12:17:15;100261.69;;;6.87;55.10
68199;BME280;55021;51.554;17.044;2023-03-12T12:32:33;100252.91;;;6.55;55.22
68199;BME280;55021;51.554;17.044;2023-03-12T12:47:43;100238.19;;;6.89;51.83
68199;BME280;55021;51.554;17.044;2023-03-12T13:02:48;100226.47;;;6.90;52.84
68199;BME280;55021;51.554;17.044;2023-03-12T13:18:08;100248.19;;;7.27;52.83
68199;BME280;55021;51.554;17.044;2023-03-12T13:33:14;100238.09;;;7.00;52.57
68199;BME280;55021;51.554;17.044;2023-03-12T13:48:18;100176.44;;;6.68;50.89
68199;BME280;55021;51.554;17.044;2023-03-12T14:03:25;100228.69;;;7.34;51.39
68199;BME280;55021;51.554;17.044;2023-03-12T14:18:33;100157.91;;;6.75;50.70
68199;BME280;55021;51.554;17.044;2023-03-12T14:33:47;100163.91;;;6.98;52.96
68199;BME280;55021;51.554;17.044;2023-03-12T14:48:52;100142.69;;;7.81;50.50
68199;BME280;55021;51.554;17.044;2023-03-12T15:03:58;100184.94;;;7.42;50.53
68199;BME280;55021;51.554;17.044;2023-03-12T15:19:02;100171.59;;;7.60;49.32
68199;BME280;55021;51.554;17.044;2023-03-12T15:34:05;100149.59;;;6.97;48.44
68199;BME280;55021;51.554;17.044;2023-03-12T15:49:19;100115.94;;;7.03;49.66
68199;BME280;55021;51.554;17.044;2023-03-12T16:04:24;100117.34;;;7.64;48.42
68199;BME280;55021;51.554;17.044;2023-03-12T16:19:28;100124.28;;;7.38;49.46
68199;BME280;55021;51.554;17.044;2023-03-12T16:34:31;100055.06;;;6.82;51.21
68199;BME280;55021;51.554;17.044;2023-03-12T16:49:34;100140.88;;;7.24;51.24
68199;BME280;55021;51.554;17.044;2023-03-12T17:04:36;100072.84;;;6.64;52.08
68199;BME280;55021;51.554;17.044;2023-03-12T17:19:39;100146.53;;;7.02;52.67
68199;BME280;55021;51.554;17.044;2023-03-12T17:34:41;100112.78;;;6.78;50.81
68199;BME280;55021;51.554;17.044;2023-03-12T17:49:44;100065.31;;;6.39;50.27
68199;BME280;55021;51.554;17.044;2023-03-12T18:04:46;100081.50;;;6.68;49.82
68199;BME280;55021;51.554;17.044;2023-03-12T18:19:49;100096.66;;;6.69;48.85
68199;BME280;55021;51.554;17.044;2023-03-12T18:34:51;100118.59;;;6.34;51.25
68199;BME280;55021;51.554;17.044;2023-03-12T18:49:54;100067.25;;;6.28;51.42
68199;BME280;55021;51.554;17.044;2023-03-12T19:04:56;100066.81;;;6.22;53.12
68199;BME280;55021;51.554;17.044;2023-03-12T19:19:59;100082.25;;;6.09;53.87
68199;BME280;55021;51.554;17.044;2023-03-12T19:35:01;100060.88;;;5.47;58.94
68199;BME280;55021;51.554;17.044;2023-03-12T19:50:05;100073.97;;;5.61;62.07
68199;BME280;55021;51.554;17.044;2023-03-12T20:05:08;100056.41;;;5.78;64.50
68199;BME280;55021;51.554;17.044;2023-03-12T20:20:12;100026.66;;;5.60;65.96
68199;BME280;55021;51.554;17.044;2023-03-12T20:35:14;100009.84;;;5.89;63.40
68199;BME280;55021;51.554;17.044;2023-03-12T20:50:17;100015.41;;;4.09;73.24
68199;BME280;55021;51.554;17.044;2023-03-12T21:05:19;99998.25;;;3.89;75.50
68199;BME280;55021;51.554;17.044;2023-03-12T21:20:22;100010.56;;;4.35;76.22
68199;BME280;55021;51.554;17.044;2023-03-12T21:35:25;99985.28;;;3.74;78.86
68199;BME280;55021;51.554;17.044;2023-03-12T21:50:28;99997.53;;;4.41;77.55
68199;BME280;55021;51.554;17.044;2023-03-12T22:05:30;99892.09;;;4.22;77.67
68199;BME280;55021;51.554;17.044;2023-03-12T22:20:33;99899.63;;;4.48;78.31
68199;BME280;55021;51.554;17.044;2023-03-12T22:35:42;99927.91;;;4.94;78.26
68199;BME280;55021;51.554;17.044;2023-03-12T22:50:51;99952.50;;;5.29;78.02
68199;BME280;55021;51.554;17.044;2023-03-12T23:05:54;99877.84;;;5.34;77.71
68199;BME280;55021;51.554;17.044;2023-03-12T23:21:00;99868.25;;;5.32;78.00
68199;BME280;55021;51.554;17.044;2023-03-12T23:36:05;99786.88;;;5.12;77.71
68199;BME280;55021;51.554;17.044;2023-03-12T23:51:10;99844.38;;;5.29;78.27
